GLD1043 SBCT-SBSP
Flight info
| Callsign | GLD1043 |
|---|---|
| Flight time | 0h 35m |
| Altitude | 29000 |
| Route | EDVEB UM548 DOSMU DCT ANISE |
| Aircraft | B738/M-SDE2E3FGHIRWXY/LB1 |
Departure
| Time | 2026-05-05 21:29 |
|---|---|
| Airport | Curitiba-Afonso Pena International Airport (SBCT) |
Arrival
| Time | 2026-05-05 22:04 |
|---|---|
| Airport | Congonhas–Deputado Freitas Nobre Airport (SBSP) |
| Time | Latitude | Longitude | Altitude | Speed | Heading |
|---|---|---|---|---|---|
| 2026-05-05 20:47 | -25.53764 | -49.16999 | 2992 ft | 0 kts | 225° |
| 2026-05-05 21:17 | -25.53749 | -49.16981 | 2992 ft | 4 kts | 233° |
| 2026-05-05 21:17 | -25.53737 | -49.16960 | 2991 ft | 5 kts | 251° |
| 2026-05-05 21:18 | -25.53733 | -49.16936 | 2990 ft | 4 kts | 288° |
| 2026-05-05 21:18 | -25.53738 | -49.16924 | 2990 ft | 1 kts | 314° |
| 2026-05-05 21:18 | -25.53738 | -49.16925 | 2990 ft | 0 kts | 314° |
| 2026-05-05 21:18 | -25.53738 | -49.16924 | 2990 ft | 0 kts | 314° |
| 2026-05-05 21:24 | -25.53738 | -49.16925 | 2990 ft | 1 kts | 314° |
| 2026-05-05 21:25 | -25.53724 | -49.16940 | 2989 ft | 5 kts | 314° |
| 2026-05-05 21:25 | -25.53693 | -49.16975 | 2989 ft | 8 kts | 314° |
| 2026-05-05 21:25 | -25.53663 | -49.17007 | 2989 ft | 4 kts | 327° |
| 2026-05-05 21:25 | -25.53629 | -49.16997 | 2989 ft | 6 kts | 37° |
| 2026-05-05 21:26 | -25.53613 | -49.16950 | 2989 ft | 8 kts | 85° |
| 2026-05-05 21:26 | -25.53613 | -49.16914 | 2989 ft | 0 kts | 90° |
| 2026-05-05 21:27 | -25.53613 | -49.16891 | 2989 ft | 6 kts | 90° |
| 2026-05-05 21:27 | -25.53613 | -49.16828 | 2989 ft | 9 kts | 90° |
| 2026-05-05 21:28 | -25.53604 | -49.16774 | 2990 ft | 7 kts | 55° |
| 2026-05-05 21:28 | -25.53573 | -49.16766 | 2990 ft | 6 kts | 328° |
| 2026-05-05 21:28 | -25.53468 | -49.16882 | 2990 ft | 54 kts | 315° |
| 2026-05-05 21:28 | -25.53035 | -49.17367 | 2992 ft | 124 kts | 315° |
| 2026-05-05 21:29 | -25.52293 | -49.18199 | 3111 ft | 171 kts | 314° |
| 2026-05-05 21:29 | -25.51487 | -49.19195 | 3876 ft | 174 kts | 304° |
| 2026-05-05 21:29 | -25.50943 | -49.20429 | 4594 ft | 183 kts | 291° |
| 2026-05-05 21:29 | -25.50432 | -49.21744 | 5295 ft | 192 kts | 296° |
| 2026-05-05 21:30 | -25.49763 | -49.23125 | 5624 ft | 216 kts | 299° |
| 2026-05-05 21:30 | -25.49253 | -49.24122 | 5768 ft | 232 kts | 299° |
| 2026-05-05 21:30 | -25.48108 | -49.26244 | 6304 ft | 248 kts | 303° |
| 2026-05-05 21:30 | -25.46919 | -49.27628 | 6873 ft | 253 kts | 327° |
| 2026-05-05 21:31 | -25.45836 | -49.28167 | 7294 ft | 256 kts | 345° |
| 2026-05-05 21:31 | -25.44052 | -49.28115 | 7874 ft | 266 kts | 16° |
| 2026-05-05 21:31 | -25.42302 | -49.27242 | 8356 ft | 283 kts | 26° |
| 2026-05-05 21:31 | -25.40554 | -49.26245 | 9120 ft | 288 kts | 26° |
| 2026-05-05 21:32 | -25.38758 | -49.25231 | 10010 ft | 290 kts | 26° |
| 2026-05-05 21:32 | -25.36938 | -49.24218 | 10708 ft | 298 kts | 25° |
| 2026-05-05 21:32 | -25.35040 | -49.23075 | 10892 ft | 325 kts | 36° |
| 2026-05-05 21:32 | -25.33520 | -49.21124 | 11090 ft | 349 kts | 64° |
| 2026-05-05 21:33 | -25.32970 | -49.18485 | 11606 ft | 360 kts | 88° |
| 2026-05-05 21:33 | -25.32961 | -49.15707 | 12304 ft | 363 kts | 90° |
| 2026-05-05 21:33 | -25.32997 | -49.12903 | 12987 ft | 367 kts | 90° |
| 2026-05-05 21:33 | -25.33036 | -49.10064 | 13653 ft | 371 kts | 90° |
| 2026-05-05 21:34 | -25.33063 | -49.07198 | 14277 ft | 375 kts | 90° |
| 2026-05-05 21:34 | -25.33078 | -49.04294 | 14810 ft | 381 kts | 90° |
| 2026-05-05 21:34 | -25.33082 | -49.01350 | 15365 ft | 385 kts | 90° |
| 2026-05-05 21:34 | -25.33081 | -48.98420 | 15940 ft | 388 kts | 90° |
| 2026-05-05 21:35 | -25.33075 | -48.95419 | 16509 ft | 392 kts | 90° |
| 2026-05-05 21:35 | -25.33069 | -48.92370 | 17064 ft | 396 kts | 90° |
| 2026-05-05 21:35 | -25.33061 | -48.89325 | 17609 ft | 400 kts | 91° |
| 2026-05-05 21:35 | -25.33053 | -48.86232 | 18154 ft | 404 kts | 90° |
| 2026-05-05 21:36 | -25.32719 | -48.83129 | 18645 ft | 410 kts | 74° |
| 2026-05-05 21:36 | -25.31484 | -48.80283 | 19150 ft | 413 kts | 54° |
| 2026-05-05 21:36 | -25.29601 | -48.77887 | 19630 ft | 416 kts | 45° |
| 2026-05-05 21:36 | -25.27562 | -48.75581 | 20073 ft | 420 kts | 45° |
| 2026-05-05 21:37 | -25.25495 | -48.73261 | 20496 ft | 425 kts | 45° |
| 2026-05-05 21:37 | -25.23441 | -48.70952 | 20963 ft | 428 kts | 45° |
| 2026-05-05 21:37 | -25.21347 | -48.68584 | 21428 ft | 432 kts | 45° |
| 2026-05-05 21:37 | -25.19243 | -48.66190 | 21886 ft | 435 kts | 45° |
| 2026-05-05 21:38 | -25.17132 | -48.63777 | 22331 ft | 439 kts | 45° |
| 2026-05-05 21:38 | -25.15005 | -48.61340 | 22791 ft | 442 kts | 45° |
| 2026-05-05 21:38 | -25.12864 | -48.58886 | 23226 ft | 445 kts | 45° |
| 2026-05-05 21:38 | -25.10703 | -48.56408 | 23647 ft | 449 kts | 45° |
| 2026-05-05 21:39 | -25.08553 | -48.53944 | 24010 ft | 453 kts | 45° |
| 2026-05-05 21:39 | -25.06363 | -48.51433 | 24370 ft | 456 kts | 45° |
| 2026-05-05 21:39 | -25.04158 | -48.48906 | 24720 ft | 459 kts | 45° |
| 2026-05-05 21:39 | -25.01931 | -48.46356 | 25082 ft | 462 kts | 45° |
| 2026-05-05 21:40 | -24.99696 | -48.43797 | 25432 ft | 464 kts | 45° |
| 2026-05-05 21:40 | -24.97446 | -48.41224 | 25776 ft | 467 kts | 46° |
| 2026-05-05 21:40 | -24.95188 | -48.38642 | 26148 ft | 469 kts | 46° |
| 2026-05-05 21:40 | -24.92913 | -48.36042 | 26482 ft | 472 kts | 46° |
| 2026-05-05 21:41 | -24.90625 | -48.33430 | 26791 ft | 475 kts | 46° |
| 2026-05-05 21:41 | -24.88320 | -48.30799 | 27114 ft | 478 kts | 46° |
| 2026-05-05 21:41 | -24.86002 | -48.28155 | 27431 ft | 481 kts | 46° |
| 2026-05-05 21:41 | -24.83669 | -48.25495 | 27780 ft | 483 kts | 46° |
| 2026-05-05 21:42 | -24.81342 | -48.22844 | 28247 ft | 481 kts | 46° |
| 2026-05-05 21:42 | -24.79011 | -48.20190 | 28735 ft | 480 kts | 46° |
| 2026-05-05 21:42 | -24.76719 | -48.17581 | 29170 ft | 480 kts | 46° |
| 2026-05-05 21:42 | -24.74382 | -48.14923 | 29151 ft | 485 kts | 46° |
| 2026-05-05 21:43 | -24.69742 | -48.09650 | 28938 ft | 470 kts | 46° |
| 2026-05-05 21:43 | -24.67485 | -48.07088 | 28575 ft | 462 kts | 46° |
| 2026-05-05 21:43 | -24.65264 | -48.04568 | 28286 ft | 454 kts | 46° |
| 2026-05-05 21:44 | -24.63083 | -48.02095 | 28025 ft | 445 kts | 46° |
| 2026-05-05 21:44 | -24.60942 | -47.99668 | 27778 ft | 441 kts | 46° |
| 2026-05-05 21:44 | -24.58837 | -47.97283 | 27396 ft | 438 kts | 46° |
| 2026-05-05 21:44 | -24.56719 | -47.94885 | 26973 ft | 434 kts | 46° |
| 2026-05-05 21:45 | -24.54620 | -47.92508 | 26544 ft | 431 kts | 46° |
| 2026-05-05 21:45 | -24.52539 | -47.90154 | 26117 ft | 428 kts | 46° |
| 2026-05-05 21:45 | -24.50464 | -47.87808 | 25680 ft | 425 kts | 46° |
| 2026-05-05 21:45 | -24.48408 | -47.85484 | 25252 ft | 423 kts | 45° |
| 2026-05-05 21:46 | -24.46360 | -47.83171 | 24808 ft | 421 kts | 45° |
| 2026-05-05 21:46 | -24.44323 | -47.80871 | 24373 ft | 420 kts | 45° |
| 2026-05-05 21:46 | -24.42288 | -47.78575 | 23945 ft | 418 kts | 45° |
| 2026-05-05 21:46 | -24.40294 | -47.76327 | 23471 ft | 416 kts | 45° |
| 2026-05-05 21:47 | -24.38279 | -47.74055 | 23003 ft | 413 kts | 45° |
| 2026-05-05 21:47 | -24.36279 | -47.71801 | 22557 ft | 410 kts | 45° |
| 2026-05-05 21:47 | -24.34298 | -47.69571 | 22117 ft | 406 kts | 46° |
| 2026-05-05 21:47 | -24.32336 | -47.67362 | 21695 ft | 403 kts | 46° |
| 2026-05-05 21:48 | -24.30383 | -47.65165 | 21274 ft | 400 kts | 46° |
| 2026-05-05 21:48 | -24.28449 | -47.62990 | 20865 ft | 397 kts | 46° |
| 2026-05-05 21:48 | -24.26525 | -47.60828 | 20456 ft | 394 kts | 46° |
| 2026-05-05 21:48 | -24.24618 | -47.58684 | 20043 ft | 392 kts | 46° |
| 2026-05-05 21:49 | -24.22717 | -47.56549 | 19631 ft | 389 kts | 46° |
| 2026-05-05 21:49 | -24.20830 | -47.54431 | 19220 ft | 387 kts | 46° |
| 2026-05-05 21:49 | -24.18951 | -47.52323 | 18796 ft | 385 kts | 46° |
| 2026-05-05 21:49 | -24.17083 | -47.50227 | 18361 ft | 384 kts | 46° |
| 2026-05-05 21:50 | -24.15244 | -47.48166 | 17912 ft | 381 kts | 46° |
| 2026-05-05 21:50 | -24.13394 | -47.46093 | 17424 ft | 380 kts | 46° |
| 2026-05-05 21:50 | -24.11549 | -47.44026 | 17009 ft | 377 kts | 46° |
| 2026-05-05 21:50 | -24.09721 | -47.41980 | 16591 ft | 374 kts | 46° |
| 2026-05-05 21:51 | -24.07910 | -47.39952 | 16185 ft | 371 kts | 46° |
| 2026-05-05 21:51 | -24.06112 | -47.37941 | 15791 ft | 368 kts | 46° |
| 2026-05-05 21:51 | -24.04327 | -47.35945 | 15391 ft | 365 kts | 46° |
| 2026-05-05 21:51 | -24.02557 | -47.33967 | 14991 ft | 363 kts | 46° |
| 2026-05-05 21:52 | -23.99053 | -47.30052 | 14211 ft | 358 kts | 45° |
| 2026-05-05 21:52 | -23.97316 | -47.28113 | 13789 ft | 356 kts | 45° |
| 2026-05-05 21:52 | -23.95592 | -47.26189 | 13366 ft | 353 kts | 45° |
| 2026-05-05 21:53 | -23.93879 | -47.24279 | 12959 ft | 349 kts | 45° |
| 2026-05-05 21:53 | -23.92182 | -47.22387 | 12566 ft | 346 kts | 45° |
| 2026-05-05 21:53 | -23.90525 | -47.20540 | 12190 ft | 343 kts | 45° |
| 2026-05-05 21:53 | -23.88858 | -47.18683 | 11810 ft | 340 kts | 45° |
| 2026-05-05 21:54 | -23.87230 | -47.16870 | 11424 ft | 328 kts | 46° |
| 2026-05-05 21:54 | -23.85639 | -47.15099 | 11073 ft | 325 kts | 46° |
| 2026-05-05 21:54 | -23.84012 | -47.13288 | 10769 ft | 321 kts | 46° |
| 2026-05-05 21:54 | -23.82510 | -47.11617 | 10634 ft | 312 kts | 46° |
| 2026-05-05 21:55 | -23.81024 | -47.09965 | 10494 ft | 304 kts | 46° |
| 2026-05-05 21:55 | -23.79544 | -47.08320 | 10360 ft | 295 kts | 46° |
| 2026-05-05 21:55 | -23.78143 | -47.06764 | 10239 ft | 287 kts | 46° |
| 2026-05-05 21:55 | -23.76749 | -47.05214 | 9959 ft | 285 kts | 46° |
| 2026-05-05 21:56 | -23.75361 | -47.03672 | 9682 ft | 283 kts | 46° |
| 2026-05-05 21:56 | -23.73984 | -47.02144 | 9393 ft | 282 kts | 46° |
| 2026-05-05 21:56 | -23.72613 | -47.00622 | 9105 ft | 280 kts | 46° |
| 2026-05-05 21:56 | -23.71252 | -46.99112 | 8827 ft | 278 kts | 46° |
| 2026-05-05 21:57 | -23.69877 | -46.97586 | 8355 ft | 284 kts | 46° |
| 2026-05-05 21:57 | -23.68489 | -46.96046 | 8022 ft | 285 kts | 46° |
| 2026-05-05 21:57 | -23.67112 | -46.94521 | 7712 ft | 278 kts | 46° |
| 2026-05-05 21:57 | -23.65777 | -46.93042 | 7428 ft | 269 kts | 46° |
| 2026-05-05 21:58 | -23.64478 | -46.91602 | 7162 ft | 264 kts | 46° |
| 2026-05-05 21:58 | -23.63194 | -46.90180 | 6908 ft | 262 kts | 47° |
| 2026-05-05 21:58 | -23.61920 | -46.88768 | 6673 ft | 258 kts | 47° |
| 2026-05-05 21:58 | -23.60691 | -46.87407 | 6409 ft | 247 kts | 46° |
| 2026-05-05 21:59 | -23.59529 | -46.86123 | 6295 ft | 234 kts | 47° |
| 2026-05-05 21:59 | -23.58410 | -46.84887 | 6169 ft | 223 kts | 47° |
| 2026-05-05 21:59 | -23.57333 | -46.83696 | 6084 ft | 219 kts | 47° |
| 2026-05-05 21:59 | -23.56294 | -46.82494 | 5991 ft | 218 kts | 54° |
| 2026-05-05 22:00 | -23.55480 | -46.81099 | 5905 ft | 218 kts | 60° |
| 2026-05-05 22:00 | -23.54681 | -46.79692 | 5807 ft | 217 kts | 59° |
| 2026-05-05 22:00 | -23.53886 | -46.78320 | 5592 ft | 210 kts | 59° |
| 2026-05-05 22:00 | -23.53118 | -46.77004 | 5396 ft | 202 kts | 59° |
| 2026-05-05 22:01 | -23.52372 | -46.75730 | 5176 ft | 196 kts | 60° |
| 2026-05-05 22:01 | -23.51947 | -46.74369 | 4940 ft | 188 kts | 93° |
| 2026-05-05 22:01 | -23.52324 | -46.73071 | 4763 ft | 176 kts | 124° |
| 2026-05-05 22:01 | -23.53189 | -46.72199 | 4550 ft | 164 kts | 146° |
| 2026-05-05 22:02 | -23.54111 | -46.71560 | 4355 ft | 152 kts | 146° |
| 2026-05-05 22:02 | -23.54986 | -46.70959 | 4145 ft | 148 kts | 146° |
| 2026-05-05 22:02 | -23.55840 | -46.70367 | 3951 ft | 143 kts | 146° |
| 2026-05-05 22:02 | -23.56663 | -46.69798 | 3785 ft | 142 kts | 146° |
| 2026-05-05 22:03 | -23.57502 | -46.69218 | 3664 ft | 144 kts | 146° |
| 2026-05-05 22:03 | -23.58355 | -46.68627 | 3482 ft | 145 kts | 147° |
| 2026-05-05 22:03 | -23.59210 | -46.68036 | 3280 ft | 145 kts | 147° |
| 2026-05-05 22:03 | -23.60074 | -46.67440 | 3116 ft | 148 kts | 147° |
| 2026-05-05 22:04 | -23.60941 | -46.66842 | 2892 ft | 150 kts | 147° |
| 2026-05-05 22:04 | -23.61807 | -46.66240 | 2682 ft | 144 kts | 147° |
| 2026-05-05 22:04 | -23.62612 | -46.65683 | 2604 ft | 121 kts | 148° |
| 2026-05-05 22:04 | -23.63030 | -46.65395 | 2609 ft | 22 kts | 148° |
| 2026-05-05 22:05 | -23.63098 | -46.65370 | 2609 ft | 8 kts | 179° |
| 2026-05-05 22:05 | -23.63159 | -46.65381 | 2605 ft | 11 kts | 198° |
| 2026-05-05 22:05 | -23.63186 | -46.65408 | 2602 ft | 2 kts | 253° |
| 2026-05-05 22:05 | -23.63184 | -46.65415 | 2602 ft | 0 kts | 285° |
| 2026-05-05 22:06 | -23.63182 | -46.65419 | 2602 ft | 2 kts | 294° |
| 2026-05-05 22:06 | -23.63160 | -46.65446 | 2601 ft | 7 kts | 319° |
| 2026-05-05 22:06 | -23.63107 | -46.65485 | 2601 ft | 10 kts | 327° |
| 2026-05-05 22:07 | -23.63036 | -46.65518 | 2602 ft | 12 kts | 349° |
| 2026-05-05 22:07 | -23.62969 | -46.65545 | 2602 ft | 10 kts | 328° |
| 2026-05-05 22:07 | -23.62912 | -46.65585 | 2602 ft | 10 kts | 326° |
| 2026-05-05 22:07 | -23.62856 | -46.65624 | 2602 ft | 9 kts | 328° |
| 2026-05-05 22:08 | -23.62804 | -46.65660 | 2602 ft | 9 kts | 328° |
| 2026-05-05 22:08 | -23.62754 | -46.65694 | 2601 ft | 7 kts | 328° |
| 2026-05-05 22:08 | -23.62716 | -46.65720 | 2601 ft | 6 kts | 328° |
| 2026-05-05 22:08 | -23.62676 | -46.65748 | 2601 ft | 7 kts | 328° |
| 2026-05-05 22:09 | -23.62636 | -46.65775 | 2601 ft | 7 kts | 328° |
| 2026-05-05 22:09 | -23.62603 | -46.65798 | 2601 ft | 6 kts | 328° |
| 2026-05-05 22:09 | -23.62562 | -46.65826 | 2601 ft | 8 kts | 326° |
| 2026-05-05 22:09 | -23.62515 | -46.65860 | 2601 ft | 8 kts | 327° |
| 2026-05-05 22:10 | -23.62480 | -46.65885 | 2600 ft | 4 kts | 321° |
| 2026-05-05 22:10 | -23.62480 | -46.65916 | 2600 ft | 6 kts | 242° |
| 2026-05-05 22:10 | -23.62498 | -46.65946 | 2599 ft | 3 kts | 236° |
| 2026-05-05 22:10 | -23.62507 | -46.65960 | 2599 ft | 2 kts | 237° |
| 2026-05-05 22:11 | -23.62509 | -46.65963 | 2599 ft | 1 kts | 237° |
| 2026-05-05 22:11 | -23.62510 | -46.65964 | 2599 ft | 0 kts | 237° |